sensor_id;sensor_type;location;lat;lon;timestamp;temperature;humidity
9828;DHT22;4953;48.952;9.442;2022-08-19T04:01:34;20.90;99.90
9828;DHT22;4953;48.952;9.442;2022-08-19T04:04:02;20.80;99.90
9828;DHT22;4953;48.952;9.442;2022-08-19T04:06:31;20.70;99.90
9828;DHT22;4953;48.952;9.442;2022-08-19T04:08:59;20.70;99.90
9828;DHT22;4953;48.952;9.442;2022-08-19T04:11:29;20.70;99.90
9828;DHT22;4953;48.952;9.442;2022-08-19T04:13:56;20.70;99.90
9828;DHT22;4953;48.952;9.442;2022-08-19T04:16:25;20.60;99.90
9828;DHT22;4953;48.952;9.442;2022-08-19T04:18:55;20.60;99.90
9828;DHT22;4953;48.952;9.442;2022-08-19T04:21:24;20.60;99.90
9828;DHT22;4953;48.952;9.442;2022-08-19T04:23:52;20.60;99.90
9828;DHT22;4953;48.952;9.442;2022-08-19T04:26:22;20.60;99.90
9828;DHT22;4953;48.952;9.442;2022-08-19T04:28:50;20.60;99.90
9828;DHT22;4953;48.952;9.442;2022-08-19T04:31:18;20.60;99.90
9828;DHT22;4953;48.952;9.442;2022-08-19T04:33:46;20.60;99.90
9828;DHT22;4953;48.952;9.442;2022-08-19T04:36:18;20.60;99.90
9828;DHT22;4953;48.952;9.442;2022-08-19T04:38:46;20.60;99.90
9828;DHT22;4953;48.952;9.442;2022-08-19T04:41:12;20.70;99.90
9828;DHT22;4953;48.952;9.442;2022-08-19T04:43:57;20.70;99.90
9828;DHT22;4953;48.952;9.442;2022-08-19T04:46:24;20.60;99.90
9828;DHT22;4953;48.952;9.442;2022-08-19T04:48:50;20.60;99.90
9828;DHT22;4953;48.952;9.442;2022-08-19T04:51:19;20.60;99.90
9828;DHT22;4953;48.952;9.442;2022-08-19T04:53:46;20.60;99.90
9828;DHT22;4953;48.952;9.442;2022-08-19T04:56:15;20.50;99.90
9828;DHT22;4953;48.952;9.442;2022-08-19T04:58:43;20.50;99.90
9828;DHT22;4953;48.952;9.442;2022-08-19T05:01:12;20.40;99.90
9828;DHT22;4953;48.952;9.442;2022-08-19T05:03:39;20.50;99.90
9828;DHT22;4953;48.952;9.442;2022-08-19T05:06:08;20.50;99.90
9828;DHT22;4953;48.952;9.442;2022-08-19T05:08:38;20.50;99.90
9828;DHT22;4953;48.952;9.442;2022-08-19T05:11:09;20.60;99.90
9828;DHT22;4953;48.952;9.442;2022-08-19T05:13:37;20.60;99.90
9828;DHT22;4953;48.952;9.442;2022-08-19T05:16:04;20.50;99.90
9828;DHT22;4953;48.952;9.442;2022-08-19T05:18:31;20.60;99.90
9828;DHT22;4953;48.952;9.442;2022-08-19T05:21:18;20.60;99.90
9828;DHT22;4953;48.952;9.442;2022-08-19T05:24:06;20.60;99.90
9828;DHT22;4953;48.952;9.442;2022-08-19T05:26:34;20.60;99.90
9828;DHT22;4953;48.952;9.442;2022-08-19T05:29:01;20.60;99.90
9828;DHT22;4953;48.952;9.442;2022-08-19T05:31:28;20.50;99.90
9828;DHT22;4953;48.952;9.442;2022-08-19T05:33:55;20.50;99.90
9828;DHT22;4953;48.952;9.442;2022-08-19T05:36:23;20.50;99.90
9828;DHT22;4953;48.952;9.442;2022-08-19T05:38:50;20.50;99.90
9828;DHT22;4953;48.952;9.442;2022-08-19T05:41:20;20.50;99.90
9828;DHT22;4953;48.952;9.442;2022-08-19T05:43:54;20.50;99.90
9828;DHT22;4953;48.952;9.442;2022-08-19T05:46:22;20.50;99.90
9828;DHT22;4953;48.952;9.442;2022-08-19T05:48:49;20.50;99.90
9828;DHT22;4953;48.952;9.442;2022-08-19T05:51:16;20.50;99.90
9828;DHT22;4953;48.952;9.442;2022-08-19T05:53:43;20.50;99.90
9828;DHT22;4953;48.952;9.442;2022-08-19T05:56:12;20.50;99.90
9828;DHT22;4953;48.952;9.442;2022-08-19T05:58:42;20.50;99.90
9828;DHT22;4953;48.952;9.442;2022-08-19T06:01:12;20.50;99.90
9828;DHT22;4953;48.952;9.442;2022-08-19T06:03:40;20.50;99.90
9828;DHT22;4953;48.952;9.442;2022-08-19T06:06:08;20.60;99.90
9828;DHT22;4953;48.952;9.442;2022-08-19T06:08:36;20.50;99.90
9828;DHT22;4953;48.952;9.442;2022-08-19T06:11:18;20.50;99.90
9828;DHT22;4953;48.952;9.442;2022-08-19T06:13:49;20.50;99.90
9828;DHT22;4953;48.952;9.442;2022-08-19T06:16:17;20.50;99.90
9828;DHT22;4953;48.952;9.442;2022-08-19T06:18:49;20.50;99.90
9828;DHT22;4953;48.952;9.442;2022-08-19T06:21:17;20.50;99.90
9828;DHT22;4953;48.952;9.442;2022-08-19T06:23:44;20.60;99.90
9828;DHT22;4953;48.952;9.442;2022-08-19T06:26:13;20.60;99.90
9828;DHT22;4953;48.952;9.442;2022-08-19T06:28:40;20.60;99.90
9828;DHT22;4953;48.952;9.442;2022-08-19T06:31:10;20.60;99.90
9828;DHT22;4953;48.952;9.442;2022-08-19T06:33:36;20.60;99.90
9828;DHT22;4953;48.952;9.442;2022-08-19T06:36:04;20.50;99.90
9828;DHT22;4953;48.952;9.442;2022-08-19T06:38:31;20.50;99.90
9828;DHT22;4953;48.952;9.442;2022-08-19T06:41:01;20.50;99.90
9828;DHT22;4953;48.952;9.442;2022-08-19T06:43:28;20.50;99.90
9828;DHT22;4953;48.952;9.442;2022-08-19T06:45:55;20.40;99.90
9828;DHT22;4953;48.952;9.442;2022-08-19T06:48:23;20.40;99.90
9828;DHT22;4953;48.952;9.442;2022-08-19T06:50:50;20.50;99.90
9828;DHT22;4953;48.952;9.442;2022-08-19T06:53:17;20.40;99.90
9828;DHT22;4953;48.952;9.442;2022-08-19T06:55:44;20.40;99.90
9828;DHT22;4953;48.952;9.442;2022-08-19T06:58:11;20.40;99.90
9828;DHT22;4953;48.952;9.442;2022-08-19T07:00:39;20.50;99.90
9828;DHT22;4953;48.952;9.442;2022-08-19T07:03:06;20.50;99.90
9828;DHT22;4953;48.952;9.442;2022-08-19T07:05:38;20.40;99.90
9828;DHT22;4953;48.952;9.442;2022-08-19T07:08:05;20.50;99.90
9828;DHT22;4953;48.952;9.442;2022-08-19T07:10:33;20.40;99.90
9828;DHT22;4953;48.952;9.442;2022-08-19T07:13:01;20.40;99.90
9828;DHT22;4953;48.952;9.442;2022-08-19T07:15:28;20.40;99.90
9828;DHT22;4953;48.952;9.442;2022-08-19T07:17:56;20.40;99.90
9828;DHT22;4953;48.952;9.442;2022-08-19T07:20:22;20.50;99.90
9828;DHT22;4953;48.952;9.442;2022-08-19T07:22:51;20.50;99.90
9828;DHT22;4953;48.952;9.442;2022-08-19T07:25:18;20.50;99.90
9828;DHT22;4953;48.952;9.442;2022-08-19T07:27:48;20.50;99.90
9828;DHT22;4953;48.952;9.442;2022-08-19T07:30:15;20.50;99.90
9828;DHT22;4953;48.952;9.442;2022-08-19T07:32:42;20.60;99.90
9828;DHT22;4953;48.952;9.442;2022-08-19T07:35:09;20.60;99.90
9828;DHT22;4953;48.952;9.442;2022-08-19T07:37:36;20.70;99.90
9828;DHT22;4953;48.952;9.442;2022-08-19T07:40:07;20.70;99.90
9828;DHT22;4953;48.952;9.442;2022-08-19T07:42:34;20.70;99.90
9828;DHT22;4953;48.952;9.442;2022-08-19T07:45:01;20.70;99.90
9828;DHT22;4953;48.952;9.442;2022-08-19T07:47:28;20.60;99.90
9828;DHT22;4953;48.952;9.442;2022-08-19T07:49:56;20.70;99.90
9828;DHT22;4953;48.952;9.442;2022-08-19T07:52:22;20.60;99.90
9828;DHT22;4953;48.952;9.442;2022-08-19T07:54:49;20.60;99.90
9828;DHT22;4953;48.952;9.442;2022-08-19T07:57:17;20.60;99.90
9828;DHT22;4953;48.952;9.442;2022-08-19T07:59:45;20.60;99.90
9828;DHT22;4953;48.952;9.442;2022-08-19T08:02:11;20.50;99.90
9828;DHT22;4953;48.952;9.442;2022-08-19T08:04:38;20.50;99.90
9828;DHT22;4953;48.952;9.442;2022-08-19T08:07:22;20.50;99.90
9828;DHT22;4953;48.952;9.442;2022-08-19T08:10:07;20.50;99.90
9828;DHT22;4953;48.952;9.442;2022-08-19T08:12:38;20.50;99.90
9828;DHT22;4953;48.952;9.442;2022-08-19T08:15:10;20.50;99.90
9828;DHT22;4953;48.952;9.442;2022-08-19T08:17:37;20.50;99.90
9828;DHT22;4953;48.952;9.442;2022-08-19T08:20:06;20.50;99.90
9828;DHT22;4953;48.952;9.442;2022-08-19T08:22:33;20.60;99.90
9828;DHT22;4953;48.952;9.442;2022-08-19T08:25:19;20.60;99.90
9828;DHT22;4953;48.952;9.442;2022-08-19T08:27:48;20.60;99.90
9828;DHT22;4953;48.952;9.442;2022-08-19T08:30:18;20.60;99.90
9828;DHT22;4953;48.952;9.442;2022-08-19T08:32:46;20.60;99.90
9828;DHT22;4953;48.952;9.442;2022-08-19T08:35:15;20.60;99.90
9828;DHT22;4953;48.952;9.442;2022-08-19T08:37:43;20.60;99.90
9828;DHT22;4953;48.952;9.442;2022-08-19T08:40:19;20.60;99.90
9828;DHT22;4953;48.952;9.442;2022-08-19T08:42:53;20.60;99.90
9828;DHT22;4953;48.952;9.442;2022-08-19T08:45:24;20.60;99.90
9828;DHT22;4953;48.952;9.442;2022-08-19T08:47:54;20.60;99.90
9828;DHT22;4953;48.952;9.442;2022-08-19T08:50:31;20.60;99.90
9828;DHT22;4953;48.952;9.442;2022-08-19T08:53:02;20.60;99.90
9828;DHT22;4953;48.952;9.442;2022-08-19T08:55:30;20.60;99.90
9828;DHT22;4953;48.952;9.442;2022-08-19T08:58:03;20.70;99.90
9828;DHT22;4953;48.952;9.442;2022-08-19T09:00:33;20.70;99.90
9828;DHT22;4953;48.952;9.442;2022-08-19T09:03:02;20.70;99.90
9828;DHT22;4953;48.952;9.442;2022-08-19T09:05:38;20.80;99.90
9828;DHT22;4953;48.952;9.442;2022-08-19T09:08:12;20.80;99.90
9828;DHT22;4953;48.952;9.442;2022-08-19T09:10:45;20.80;99.90
9828;DHT22;4953;48.952;9.442;2022-08-19T09:13:21;20.80;99.90
9828;DHT22;4953;48.952;9.442;2022-08-19T09:15:54;20.90;99.90
9828;DHT22;4953;48.952;9.442;2022-08-19T09:18:23;20.80;99.90
9828;DHT22;4953;48.952;9.442;2022-08-19T09:20:50;21.00;99.90
9828;DHT22;4953;48.952;9.442;2022-08-19T09:23:17;20.90;99.90
9828;DHT22;4953;48.952;9.442;2022-08-19T09:25:45;21.00;99.90
9828;DHT22;4953;48.952;9.442;2022-08-19T09:28:12;21.00;99.90
9828;DHT22;4953;48.952;9.442;2022-08-19T09:30:41;21.10;99.90
9828;DHT22;4953;48.952;9.442;2022-08-19T09:33:08;21.10;99.90
9828;DHT22;4953;48.952;9.442;2022-08-19T09:35:35;21.10;99.90
9828;DHT22;4953;48.952;9.442;2022-08-19T09:38:02;21.20;99.90
9828;DHT22;4953;48.952;9.442;2022-08-19T09:40:29;21.20;99.90
9828;DHT22;4953;48.952;9.442;2022-08-19T09:42:56;21.40;99.90
9828;DHT22;4953;48.952;9.442;2022-08-19T09:45:28;21.40;99.90
9828;DHT22;4953;48.952;9.442;2022-08-19T09:47:57;21.50;99.90
9828;DHT22;4953;48.952;9.442;2022-08-19T09:50:24;21.50;99.90
9828;DHT22;4953;48.952;9.442;2022-08-19T09:52:51;21.50;99.90
9828;DHT22;4953;48.952;9.442;2022-08-19T09:55:22;21.50;99.90
9828;DHT22;4953;48.952;9.442;2022-08-19T09:57:49;21.50;99.90
9828;DHT22;4953;48.952;9.442;2022-08-19T10:00:16;21.50;99.90
9828;DHT22;4953;48.952;9.442;2022-08-19T10:02:42;21.50;99.90
9828;DHT22;4953;48.952;9.442;2022-08-19T10:05:11;21.60;99.90
9828;DHT22;4953;48.952;9.442;2022-08-19T10:07:55;21.50;99.90
9828;DHT22;4953;48.952;9.442;2022-08-19T10:10:22;21.60;99.90
9828;DHT22;4953;48.952;9.442;2022-08-19T10:12:49;21.60;99.90
9828;DHT22;4953;48.952;9.442;2022-08-19T10:15:16;21.50;99.90
9828;DHT22;4953;48.952;9.442;2022-08-19T10:17:46;21.60;99.90
9828;DHT22;4953;48.952;9.442;2022-08-19T10:20:14;21.60;99.90
9828;DHT22;4953;48.952;9.442;2022-08-19T10:22:41;21.60;99.90
9828;DHT22;4953;48.952;9.442;2022-08-19T10:25:09;21.60;99.90
9828;DHT22;4953;48.952;9.442;2022-08-19T10:27:36;21.70;99.90
9828;DHT22;4953;48.952;9.442;2022-08-19T10:30:04;21.70;99.90
9828;DHT22;4953;48.952;9.442;2022-08-19T10:32:31;21.70;99.90
9828;DHT22;4953;48.952;9.442;2022-08-19T10:34:59;21.70;99.90
9828;DHT22;4953;48.952;9.442;2022-08-19T10:37:27;21.70;99.90
9828;DHT22;4953;48.952;9.442;2022-08-19T10:39:56;21.80;99.90
9828;DHT22;4953;48.952;9.442;2022-08-19T10:42:22;21.80;99.90
9828;DHT22;4953;48.952;9.442;2022-08-19T10:44:49;21.80;99.90
9828;DHT22;4953;48.952;9.442;2022-08-19T10:47:16;21.80;99.90
9828;DHT22;4953;48.952;9.442;2022-08-19T10:49:43;21.80;99.90
9828;DHT22;4953;48.952;9.442;2022-08-19T10:52:34;21.80;99.90
9828;DHT22;4953;48.952;9.442;2022-08-19T10:55:03;21.90;99.90
9828;DHT22;4953;48.952;9.442;2022-08-19T10:57:48;21.90;99.90
9828;DHT22;4953;48.952;9.442;2022-08-19T11:00:15;21.80;99.90
9828;DHT22;4953;48.952;9.442;2022-08-19T11:02:42;21.80;99.90
9828;DHT22;4953;48.952;9.442;2022-08-19T11:05:09;21.80;99.90
9828;DHT22;4953;48.952;9.442;2022-08-19T11:07:39;21.90;99.90
9828;DHT22;4953;48.952;9.442;2022-08-19T11:10:07;21.90;99.90
9828;DHT22;4953;48.952;9.442;2022-08-19T11:12:36;21.90;99.90
9828;DHT22;4953;48.952;9.442;2022-08-19T11:15:05;22.00;99.90
9828;DHT22;4953;48.952;9.442;2022-08-19T11:17:33;21.90;99.90
9828;DHT22;4953;48.952;9.442;2022-08-19T11:20:03;21.90;99.90
9828;DHT22;4953;48.952;9.442;2022-08-19T11:22:31;21.90;99.90
9828;DHT22;4953;48.952;9.442;2022-08-19T11:24:59;22.00;99.90
9828;DHT22;4953;48.952;9.442;2022-08-19T11:27:26;21.90;99.90
9828;DHT22;4953;48.952;9.442;2022-08-19T11:29:54;22.00;99.90
9828;DHT22;4953;48.952;9.442;2022-08-19T11:32:21;22.00;99.90
9828;DHT22;4953;48.952;9.442;2022-08-19T11:34:48;22.00;99.90
9828;DHT22;4953;48.952;9.442;2022-08-19T11:37:15;22.00;99.90
9828;DHT22;4953;48.952;9.442;2022-08-19T11:39:42;22.00;99.90
9828;DHT22;4953;48.952;9.442;2022-08-19T11:42:10;22.00;99.90
9828;DHT22;4953;48.952;9.442;2022-08-19T11:44:54;22.00;99.90
9828;DHT22;4953;48.952;9.442;2022-08-19T11:47:21;22.00;99.90
9828;DHT22;4953;48.952;9.442;2022-08-19T11:49:48;22.00;99.90
9828;DHT22;4953;48.952;9.442;2022-08-19T11:52:15;22.00;99.90
9828;DHT22;4953;48.952;9.442;2022-08-19T11:54:42;22.00;99.90
9828;DHT22;4953;48.952;9.442;2022-08-19T11:57:10;22.00;99.90
9828;DHT22;4953;48.952;9.442;2022-08-19T11:59:37;22.10;99.90
9828;DHT22;4953;48.952;9.442;2022-08-19T12:02:04;22.10;99.90
9828;DHT22;4953;48.952;9.442;2022-08-19T12:04:31;22.10;99.90
9828;DHT22;4953;48.952;9.442;2022-08-19T12:06:58;22.10;99.90
9828;DHT22;4953;48.952;9.442;2022-08-19T12:09:24;22.10;99.90
9828;DHT22;4953;48.952;9.442;2022-08-19T12:11:51;22.10;99.90
9828;DHT22;4953;48.952;9.442;2022-08-19T12:14:19;22.10;99.90
9828;DHT22;4953;48.952;9.442;2022-08-19T12:16:46;22.10;99.90
9828;DHT22;4953;48.952;9.442;2022-08-19T12:19:13;22.10;99.90
9828;DHT22;4953;48.952;9.442;2022-08-19T12:21:41;22.20;99.90
9828;DHT22;4953;48.952;9.442;2022-08-19T12:24:08;22.20;99.90
9828;DHT22;4953;48.952;9.442;2022-08-19T12:26:35;22.20;99.90
9828;DHT22;4953;48.952;9.442;2022-08-19T12:29:02;22.20;99.90
9828;DHT22;4953;48.952;9.442;2022-08-19T12:31:31;22.20;99.90
9828;DHT22;4953;48.952;9.442;2022-08-19T12:33:58;22.20;99.90
9828;DHT22;4953;48.952;9.442;2022-08-19T12:36:28;22.20;99.90
9828;DHT22;4953;48.952;9.442;2022-08-19T12:38:54;22.20;99.90
9828;DHT22;4953;48.952;9.442;2022-08-19T12:41:24;22.20;99.90
9828;DHT22;4953;48.952;9.442;2022-08-19T12:43:50;22.20;99.90
9828;DHT22;4953;48.952;9.442;2022-08-19T12:46:18;22.20;99.90
9828;DHT22;4953;48.952;9.442;2022-08-19T12:48:47;22.20;99.90
9828;DHT22;4953;48.952;9.442;2022-08-19T12:51:15;22.30;99.90
9828;DHT22;4953;48.952;9.442;2022-08-19T12:53:44;22.30;99.90
9828;DHT22;4953;48.952;9.442;2022-08-19T12:56:11;22.30;99.90
9828;DHT22;4953;48.952;9.442;2022-08-19T12:58:40;22.30;99.90
9828;DHT22;4953;48.952;9.442;2022-08-19T13:01:09;22.30;99.90
9828;DHT22;4953;48.952;9.442;2022-08-19T13:03:37;22.30;99.90
9828;DHT22;4953;48.952;9.442;2022-08-19T13:06:06;22.30;99.90
9828;DHT22;4953;48.952;9.442;2022-08-19T13:08:33;22.30;99.90
9828;DHT22;4953;48.952;9.442;2022-08-19T13:11:07;22.30;99.90
9828;DHT22;4953;48.952;9.442;2022-08-19T13:13:36;22.30;99.90
9828;DHT22;4953;48.952;9.442;2022-08-19T13:16:06;22.30;99.90
9828;DHT22;4953;48.952;9.442;2022-08-19T13:18:34;22.30;99.90
9828;DHT22;4953;48.952;9.442;2022-08-19T13:21:02;22.30;99.90
9828;DHT22;4953;48.952;9.442;2022-08-19T13:23:31;22.30;99.90
9828;DHT22;4953;48.952;9.442;2022-08-19T13:25:58;22.30;99.90
9828;DHT22;4953;48.952;9.442;2022-08-19T13:28:26;22.40;99.90
9828;DHT22;4953;48.952;9.442;2022-08-19T13:31:15;22.40;99.90
9828;DHT22;4953;48.952;9.442;2022-08-19T13:33:59;22.40;99.90
9828;DHT22;4953;48.952;9.442;2022-08-19T13:36:26;22.40;99.90
9828;DHT22;4953;48.952;9.442;2022-08-19T13:38:54;22.40;99.90
9828;DHT22;4953;48.952;9.442;2022-08-19T13:41:22;22.40;99.90
9828;DHT22;4953;48.952;9.442;2022-08-19T13:43:48;22.50;99.90
9828;DHT22;4953;48.952;9.442;2022-08-19T13:46:15;22.50;99.90
9828;DHT22;4953;48.952;9.442;2022-08-19T13:48:43;22.50;99.90
9828;DHT22;4953;48.952;9.442;2022-08-19T13:51:09;22.50;99.90
9828;DHT22;4953;48.952;9.442;2022-08-19T13:53:36;22.50;99.90
9828;DHT22;4953;48.952;9.442;2022-08-19T13:56:06;22.60;99.90
9828;DHT22;4953;48.952;9.442;2022-08-19T13:58:33;22.60;99.90
9828;DHT22;4953;48.952;9.442;2022-08-19T14:01:00;22.60;99.90
9828;DHT22;4953;48.952;9.442;2022-08-19T14:03:27;22.60;99.90
9828;DHT22;4953;48.952;9.442;2022-08-19T14:05:54;22.70;99.90
9828;DHT22;4953;48.952;9.442;2022-08-19T14:08:22;22.70;99.90
9828;DHT22;4953;48.952;9.442;2022-08-19T14:10:48;22.70;99.90
9828;DHT22;4953;48.952;9.442;2022-08-19T14:13:19;22.80;99.90
9828;DHT22;4953;48.952;9.442;2022-08-19T14:15:46;22.70;99.90
9828;DHT22;4953;48.952;9.442;2022-08-19T14:18:14;22.70;99.90
9828;DHT22;4953;48.952;9.442;2022-08-19T14:20:41;22.80;99.90
9828;DHT22;4953;48.952;9.442;2022-08-19T14:23:08;22.80;99.90
9828;DHT22;4953;48.952;9.442;2022-08-19T14:25:36;22.80;99.90
9828;DHT22;4953;48.952;9.442;2022-08-19T14:28:03;22.80;99.90
9828;DHT22;4953;48.952;9.442;2022-08-19T14:30:33;22.80;99.90
9828;DHT22;4953;48.952;9.442;2022-08-19T14:33:03;22.80;99.90
9828;DHT22;4953;48.952;9.442;2022-08-19T14:35:31;22.80;99.90
9828;DHT22;4953;48.952;9.442;2022-08-19T14:38:00;22.80;99.90
9828;DHT22;4953;48.952;9.442;2022-08-19T14:40:29;22.80;99.90
9828;DHT22;4953;48.952;9.442;2022-08-19T14:42:58;22.80;99.90
9828;DHT22;4953;48.952;9.442;2022-08-19T14:45:32;22.80;99.90
9828;DHT22;4953;48.952;9.442;2022-08-19T14:47:59;22.80;99.90
9828;DHT22;4953;48.952;9.442;2022-08-19T14:50:27;22.80;99.90
9828;DHT22;4953;48.952;9.442;2022-08-19T14:52:58;22.80;99.90
9828;DHT22;4953;48.952;9.442;2022-08-19T14:55:26;22.70;99.90
9828;DHT22;4953;48.952;9.442;2022-08-19T14:57:53;22.80;99.90
9828;DHT22;4953;48.952;9.442;2022-08-19T15:00:20;22.80;99.90
9828;DHT22;4953;48.952;9.442;2022-08-19T15:02:50;22.80;99.90
9828;DHT22;4953;48.952;9.442;2022-08-19T15:05:17;22.80;99.90
9828;DHT22;4953;48.952;9.442;2022-08-19T15:07:44;22.80;99.90
9828;DHT22;4953;48.952;9.442;2022-08-19T15:10:11;22.70;99.90
9828;DHT22;4953;48.952;9.442;2022-08-19T15:12:38;22.60;99.90
9828;DHT22;4953;48.952;9.442;2022-08-19T15:15:07;22.60;99.90
9828;DHT22;4953;48.952;9.442;2022-08-19T15:17:35;22.60;99.90
9828;DHT22;4953;48.952;9.442;2022-08-19T15:20:05;22.60;99.90
9828;DHT22;4953;48.952;9.442;2022-08-19T15:22:32;22.50;99.90
9828;DHT22;4953;48.952;9.442;2022-08-19T15:24:59;22.50;99.90
9828;DHT22;4953;48.952;9.442;2022-08-19T15:27:26;22.50;99.90
9828;DHT22;4953;48.952;9.442;2022-08-19T15:29:53;22.50;99.90
9828;DHT22;4953;48.952;9.442;2022-08-19T15:32:22;22.40;99.90
9828;DHT22;4953;48.952;9.442;2022-08-19T15:34:51;22.40;99.90
9828;DHT22;4953;48.952;9.442;2022-08-19T15:37:19;22.40;99.90
9828;DHT22;4953;48.952;9.442;2022-08-19T15:39:48;22.40;99.90
9828;DHT22;4953;48.952;9.442;2022-08-19T15:42:15;22.40;99.90
9828;DHT22;4953;48.952;9.442;2022-08-19T15:44:42;22.30;99.90
9828;DHT22;4953;48.952;9.442;2022-08-19T15:47:09;22.30;99.90
9828;DHT22;4953;48.952;9.442;2022-08-19T15:49:36;22.30;99.90
9828;DHT22;4953;48.952;9.442;2022-08-19T15:52:03;22.20;99.90
9828;DHT22;4953;48.952;9.442;2022-08-19T15:54:33;22.20;99.90
9828;DHT22;4953;48.952;9.442;2022-08-19T15:57:00;22.20;99.90
9828;DHT22;4953;48.952;9.442;2022-08-19T15:59:45;22.20;99.90
9828;DHT22;4953;48.952;9.442;2022-08-19T16:02:29;22.20;99.90
9828;DHT22;4953;48.952;9.442;2022-08-19T16:05:15;22.10;99.90
9828;DHT22;4953;48.952;9.442;2022-08-19T16:08:00;22.10;99.90
9828;DHT22;4953;48.952;9.442;2022-08-19T16:10:29;22.10;99.90
9828;DHT22;4953;48.952;9.442;2022-08-19T16:12:57;22.10;99.90
9828;DHT22;4953;48.952;9.442;2022-08-19T16:15:24;22.10;99.90
9828;DHT22;4953;48.952;9.442;2022-08-19T16:17:51;22.10;99.90
9828;DHT22;4953;48.952;9.442;2022-08-19T16:20:19;22.20;99.90
9828;DHT22;4953;48.952;9.442;2022-08-19T16:22:47;22.10;99.90
9828;DHT22;4953;48.952;9.442;2022-08-19T16:25:14;22.10;99.90
9828;DHT22;4953;48.952;9.442;2022-08-19T16:27:43;22.10;99.90
9828;DHT22;4953;48.952;9.442;2022-08-19T16:30:10;22.00;99.90
9828;DHT22;4953;48.952;9.442;2022-08-19T16:32:42;22.00;99.90
9828;DHT22;4953;48.952;9.442;2022-08-19T16:35:08;22.10;99.90
9828;DHT22;4953;48.952;9.442;2022-08-19T16:37:35;22.10;99.90
9828;DHT22;4953;48.952;9.442;2022-08-19T16:40:03;22.10;99.90
9828;DHT22;4953;48.952;9.442;2022-08-19T16:42:31;22.10;99.90
9828;DHT22;4953;48.952;9.442;2022-08-19T16:45:00;22.10;99.90
9828;DHT22;4953;48.952;9.442;2022-08-19T16:47:28;22.10;99.90
9828;DHT22;4953;48.952;9.442;2022-08-19T16:49:55;22.10;99.90
9828;DHT22;4953;48.952;9.442;2022-08-19T16:52:21;22.10;99.90
9828;DHT22;4953;48.952;9.442;2022-08-19T16:54:50;22.10;99.90
9828;DHT22;4953;48.952;9.442;2022-08-19T16:57:17;22.10;99.90
9828;DHT22;4953;48.952;9.442;2022-08-19T16:59:44;22.10;99.90
9828;DHT22;4953;48.952;9.442;2022-08-19T17:02:13;22.20;99.90
9828;DHT22;4953;48.952;9.442;2022-08-19T17:04:39;22.20;99.90
9828;DHT22;4953;48.952;9.442;2022-08-19T17:07:08;22.20;99.90
9828;DHT22;4953;48.952;9.442;2022-08-19T17:09:35;22.20;99.90
9828;DHT22;4953;48.952;9.442;2022-08-19T17:12:02;22.20;99.90
9828;DHT22;4953;48.952;9.442;2022-08-19T17:14:29;22.20;99.90
9828;DHT22;4953;48.952;9.442;2022-08-19T17:16:56;22.20;99.90
9828;DHT22;4953;48.952;9.442;2022-08-19T17:19:24;22.30;99.90
9828;DHT22;4953;48.952;9.442;2022-08-19T17:21:52;22.20;99.90
9828;DHT22;4953;48.952;9.442;2022-08-19T17:24:18;22.20;99.90
9828;DHT22;4953;48.952;9.442;2022-08-19T17:26:45;22.20;99.90
9828;DHT22;4953;48.952;9.442;2022-08-19T17:29:12;22.20;99.90
9828;DHT22;4953;48.952;9.442;2022-08-19T17:31:39;22.20;99.90
9828;DHT22;4953;48.952;9.442;2022-08-19T17:34:06;22.20;99.90
9828;DHT22;4953;48.952;9.442;2022-08-19T17:36:34;22.20;99.90
9828;DHT22;4953;48.952;9.442;2022-08-19T17:39:03;22.20;99.90
9828;DHT22;4953;48.952;9.442;2022-08-19T17:41:30;22.20;99.90
9828;DHT22;4953;48.952;9.442;2022-08-19T17:43:59;22.20;99.90
9828;DHT22;4953;48.952;9.442;2022-08-19T17:46:26;22.20;99.90
9828;DHT22;4953;48.952;9.442;2022-08-19T17:48:55;22.20;99.90
9828;DHT22;4953;48.952;9.442;2022-08-19T17:51:36;22.20;99.90
9828;DHT22;4953;48.952;9.442;2022-08-19T17:54:08;22.20;99.90
9828;DHT22;4953;48.952;9.442;2022-08-19T17:56:36;22.20;99.90
9828;DHT22;4953;48.952;9.442;2022-08-19T17:59:03;22.20;99.90
9828;DHT22;4953;48.952;9.442;2022-08-19T18:01:30;22.20;99.90
9828;DHT22;4953;48.952;9.442;2022-08-19T18:03:57;22.10;99.90
9828;DHT22;4953;48.952;9.442;2022-08-19T18:06:24;22.10;99.90
9828;DHT22;4953;48.952;9.442;2022-08-19T18:08:51;22.10;99.90
9828;DHT22;4953;48.952;9.442;2022-08-19T18:11:22;22.10;99.90
9828;DHT22;4953;48.952;9.442;2022-08-19T18:13:49;22.10;99.90
9828;DHT22;4953;48.952;9.442;2022-08-19T18:16:17;22.10;99.90
9828;DHT22;4953;48.952;9.442;2022-08-19T18:18:45;22.10;99.90
9828;DHT22;4953;48.952;9.442;2022-08-19T18:21:12;22.00;99.90
9828;DHT22;4953;48.952;9.442;2022-08-19T18:23:40;22.00;99.90
9828;DHT22;4953;48.952;9.442;2022-08-19T18:26:07;22.00;99.90
9828;DHT22;4953;48.952;9.442;2022-08-19T18:28:35;22.00;99.90
9828;DHT22;4953;48.952;9.442;2022-08-19T18:31:04;21.90;99.90
9828;DHT22;4953;48.952;9.442;2022-08-19T18:33:31;21.90;99.90
9828;DHT22;4953;48.952;9.442;2022-08-19T18:35:59;21.90;99.90
9828;DHT22;4953;48.952;9.442;2022-08-19T18:38:26;21.90;99.90
9828;DHT22;4953;48.952;9.442;2022-08-19T18:41:10;21.80;99.90
9828;DHT22;4953;48.952;9.442;2022-08-19T18:43:55;21.80;99.90
9828;DHT22;4953;48.952;9.442;2022-08-19T18:46:39;21.70;99.90
9828;DHT22;4953;48.952;9.442;2022-08-19T18:49:26;21.70;99.90
9828;DHT22;4953;48.952;9.442;2022-08-19T18:51:53;21.70;99.90
9828;DHT22;4953;48.952;9.442;2022-08-19T18:54:21;21.70;99.90
9828;DHT22;4953;48.952;9.442;2022-08-19T18:56:48;21.60;99.90
9828;DHT22;4953;48.952;9.442;2022-08-19T18:59:21;21.60;99.90
9828;DHT22;4953;48.952;9.442;2022-08-19T19:01:49;21.60;99.90
9828;DHT22;4953;48.952;9.442;2022-08-19T19:04:19;21.60;99.90
9828;DHT22;4953;48.952;9.442;2022-08-19T19:06:46;21.50;99.90
9828;DHT22;4953;48.952;9.442;2022-08-19T19:09:15;21.50;99.90
9828;DHT22;4953;48.952;9.442;2022-08-19T19:11:45;21.50;99.90
9828;DHT22;4953;48.952;9.442;2022-08-19T19:14:18;21.50;99.90
9828;DHT22;4953;48.952;9.442;2022-08-19T19:16:48;21.40;99.90
9828;DHT22;4953;48.952;9.442;2022-08-19T19:19:16;21.40;99.90
9828;DHT22;4953;48.952;9.442;2022-08-19T19:21:45;21.40;99.90
9828;DHT22;4953;48.952;9.442;2022-08-19T19:24:15;21.40;99.90
9828;DHT22;4953;48.952;9.442;2022-08-19T19:26:45;21.30;99.90
9828;DHT22;4953;48.952;9.442;2022-08-19T19:29:12;21.30;99.90
9828;DHT22;4953;48.952;9.442;2022-08-19T19:31:40;21.30;99.90
9828;DHT22;4953;48.952;9.442;2022-08-19T19:34:10;21.30;99.90
9828;DHT22;4953;48.952;9.442;2022-08-19T19:36:38;21.30;99.90
9828;DHT22;4953;48.952;9.442;2022-08-19T19:39:05;21.30;99.90
9828;DHT22;4953;48.952;9.442;2022-08-19T19:41:32;21.30;99.90
9828;DHT22;4953;48.952;9.442;2022-08-19T19:44:01;21.30;99.90
9828;DHT22;4953;48.952;9.442;2022-08-19T19:46:29;21.20;99.90
9828;DHT22;4953;48.952;9.442;2022-08-19T19:48:57;21.20;99.90
9828;DHT22;4953;48.952;9.442;2022-08-19T19:51:26;21.20;99.90
9828;DHT22;4953;48.952;9.442;2022-08-19T19:53:53;21.20;99.90
9828;DHT22;4953;48.952;9.442;2022-08-19T19:56:21;21.20;99.90
9828;DHT22;4953;48.952;9.442;2022-08-19T19:58:48;21.20;99.90
9828;DHT22;4953;48.952;9.442;2022-08-19T20:01:18;21.20;99.90
9828;DHT22;4953;48.952;9.442;2022-08-19T20:03:46;21.20;99.90
9828;DHT22;4953;48.952;9.442;2022-08-19T20:06:15;21.20;99.90
9828;DHT22;4953;48.952;9.442;2022-08-19T20:08:43;21.20;99.90
9828;DHT22;4953;48.952;9.442;2022-08-19T20:11:30;21.30;99.90
9828;DHT22;4953;48.952;9.442;2022-08-19T20:14:00;21.20;99.90